Latest Weather Observations for Coffs Harbour

IDN60801

Issued at 3:35 pm EDT Monday 20 October 2014 (issued every 30 minutes, with the page automatically refreshed every 10 minutes)

About weather observations | Map of weather stations | Latest weather observations for NSW | Other Formats
Station Details ID: 059040 Name: COFFS HARBOUR MO Lat: -30.31 Lon: 153.12 Height: 5.0 m
Data from the previous 72 hours. | See also: Recent months at Coffs Harbour
Date/Time
EDT
Temp
°C
App
Temp
°C
Dew
Point
Rel
Hum
%
Delta-T
°C
Wind Press
QNH
hPa
Press
MSL
hPa
Rain
since 9 am
mm
Dir
 
Spd
km/h
Gust
km/h
Spd
kts
Gust
kts
20/03:30pm 22.2 15.3 15.7 66 3.9 S 46 63 25 34 1025.1 - 0.0
20/03:08pm 22.6 16.5 16.1 66 3.9 S 43 61 23 33 1025.1 - 0.0
20/03:00pm 22.8 16.6 16.4 67 3.9 S 44 57 24 31 1025.1 1025.2 0.0
20/02:28pm 23.4 19.9 16.5 65 4.2 S 30 48 16 26 1025.3 - 0.0
20/02:00pm 23.5 18.7 14.1 55 5.5 S 32 41 17 22 1025.5 - 0.0
20/01:53pm 23.5 18.5 13.3 52 5.9 S 32 41 17 22 1025.6 - 0.0
20/01:30pm 23.1 20.4 13.0 53 5.8 S 19 22 10 12 1025.3 - 0.0
20/01:00pm 23.5 21.4 13.7 54 5.7 E 17 20 9 11 1024.8 - 0.0
20/12:30pm 22.8 21.2 13.8 57 5.2 NE 15 19 8 10 1024.2 - 0.0
20/12:00pm 22.9 20.9 14.0 57 5.2 ENE 17 24 9 13 1024.4 1024.5 0.0
20/11:30am 22.5 20.0 13.5 56 5.2 ENE 19 26 10 14 1024.4 - 0.0
20/11:00am 22.8 21.0 13.4 55 5.4 ENE 15 20 8 11 1024.3 - 0.0
20/10:30am 22.7 20.8 12.9 54 5.6 ENE 15 19 8 10 1024.4 - 0.0
20/10:00am 22.7 21.5 12.7 53 5.7 SE 11 13 6 7 1024.3 - 0.0
20/09:30am 21.6 20.0 12.8 57 5.0 SE 13 15 7 8 1024.1 - 0.0
20/09:00am 21.9 20.8 11.9 53 5.6 NW 9 15 5 8 1024.1 1024.2 0.0
20/08:30am 21.0 18.8 12.2 57 4.9 NW 15 20 8 11 1024.1 - 0.0
20/08:00am 19.9 17.4 12.2 61 4.3 NW 17 22 9 12 1023.9 - 0.0
20/07:30am 18.4 16.9 11.8 65 3.6 NW 11 15 6 8 1023.9 - 0.0
20/07:00am 16.3 14.2 12.3 77 2.2 NW 15 20 8 11 1023.8 - 0.0
20/06:30am 13.7 12.1 11.4 86 1.2 WNW 11 17 6 9 1023.6 - 0.0
20/06:00am 13.1 12.1 11.0 87 1.1 NNW 7 11 4 6 1023.3 1023.4 0.0
20/05:30am 12.8 11.5 11.3 91 0.8 NW 9 13 5 7 1023.3 - 0.0
20/05:00am 12.8 12.8 11.1 89 0.9 N 2 6 1 3 1023.1 - 0.0
20/04:30am 13.1 11.4 11.2 88 1.0 N 11 17 6 9 1023.3 - 0.0
20/04:00am 13.6 11.9 11.1 85 1.3 NNW 11 15 6 8 1023.4 - 0.0
20/03:30am 14.2 12.1 11.0 81 1.7 N 13 17 7 9 1023.8 - 0.0
20/03:00am 13.5 11.9 11.6 88 1.0 N 11 13 6 7 1024.0 1024.1 0.0
20/02:30am 13.5 12.6 11.2 86 1.2 NNW 7 11 4 6 1024.5 - 0.0
20/02:00am 13.7 12.1 11.6 87 1.1 NNW 11 13 6 7 1024.9 - 0.0
20/01:30am 14.0 12.4 11.6 85 1.3 NNW 11 13 6 7 1025.2 - 0.0
20/01:00am 13.8 12.1 11.3 85 1.3 NW 11 13 6 7 1025.6 - 0.0
20/12:30am 13.9 13.0 11.2 84 1.4 NW 7 9 4 5 1026.2 - 0.0
20/12:00am 14.3 13.0 11.3 82 1.6 NNW 9 11 5 6 1026.5 1026.6 0.0
 
Date/Time
EDT
Temp
°C
App
Temp
°C
Dew
Point
Rel
Hum
%
Delta-T
°C
Wind Press
QNH
hPa
Press
MSL
hPa
Rain
since 9 am
mm
Dir
 
Spd
km/h
Gust
km/h
Spd
kts
Gust
kts
19/11:30pm 14.6 13.3 11.2 80 1.8 NNW 9 13 5 7 1026.7 - 0.0
19/11:00pm 15.0 13.6 11.0 77 2.1 NNW 9 11 5 6 1026.7 - 0.0
19/10:30pm 15.3 13.2 11.2 76 2.2 NW 13 17 7 9 1026.8 - 0.0
19/10:00pm 15.5 13.9 11.4 76 2.2 NNW 11 17 6 9 1026.7 - 0.0
19/09:30pm 16.0 14.3 11.3 73 2.5 NNW 11 11 6 6 1026.5 - 0.0
19/09:00pm 16.1 14.6 11.8 75 2.3 NNW 11 13 6 7 1026.2 1026.3 0.0
19/08:30pm 16.9 15.6 11.3 69 3.0 N 9 11 5 6 1026.0 - 0.0
19/08:00pm 17.7 16.0 11.2 65 3.5 N 11 15 6 8 1025.8 - 0.0
19/07:30pm 18.6 16.5 11.0 61 4.1 NNE 13 17 7 9 1025.5 - 0.0
19/07:00pm 18.9 16.0 10.9 59 4.3 NNE 17 22 9 12 1025.1 - 0.0
19/06:30pm 19.5 16.5 10.6 56 4.8 NNE 17 20 9 11 1024.8 - 0.0
19/06:00pm 20.1 16.6 10.2 53 5.3 NNE 19 28 10 15 1024.6 1024.7 0.0
19/05:30pm 20.7 17.2 10.3 51 5.6 NE 19 26 10 14 1024.5 - 0.0
19/05:00pm 21.4 17.8 10.5 49 5.9 NE 20 32 11 17 1024.4 - 0.0
19/04:30pm 20.8 17.1 10.0 50 5.8 NE 20 28 11 15 1024.5 - 0.0
19/04:00pm 21.5 17.8 10.2 48 6.1 ENE 20 28 11 15 1024.5 - 0.0
19/03:30pm 21.4 18.3 12.3 56 5.1 NE 20 28 11 15 1024.8 - 0.0
19/03:00pm 21.6 18.5 12.3 55 5.2 NE 20 28 11 15 1025.3 1025.4 0.0
19/02:30pm 21.4 18.3 12.3 56 5.1 NE 20 28 11 15 1025.6 - 0.0
19/02:00pm 21.8 18.6 13.0 57 5.0 NE 22 32 12 17 1025.8 - 0.0
19/01:30pm 21.5 18.5 12.4 56 5.1 E 20 28 11 15 1026.3 - 0.0
19/01:00pm 21.9 18.5 12.5 55 5.3 E 22 28 12 15 1026.8 - 0.0
19/12:30pm 21.3 18.2 11.7 54 5.4 E 19 26 10 14 1027.2 - 0.0
19/12:00pm 21.4 18.7 11.7 54 5.4 E 17 22 9 12 1027.4 1027.5 0.0
19/11:30am 21.4 18.4 10.5 49 5.9 ESE 17 20 9 11 1027.8 - 0.0
19/11:00am 22.1 19.5 10.8 48 6.2 ESE 15 19 8 10 1028.0 - 0.0
19/10:30am 21.8 19.4 9.9 46 6.4 SE 13 17 7 9 1028.4 - 0.0
19/10:00am 21.5 19.1 10.0 48 6.2 ESE 13 17 7 9 1028.5 - 0.0
19/09:30am 20.3 18.5 10.7 54 5.2 SSE 11 17 6 9 1028.6 - 0.0
19/09:00am 20.0 19.6 11.0 56 4.9 WSW 4 9 2 5 1028.6 1028.7 0.6
19/08:30am 19.5 18.3 11.7 60 4.3 WSW 9 13 5 7 1028.4 - 0.6
19/08:00am 17.9 17.1 11.6 66 3.4 W 7 9 4 5 1028.4 - 0.6
19/07:30am 16.1 15.3 12.8 81 1.8 W 9 9 5 5 1028.2 - 0.6
19/07:00am 13.5 12.9 12.4 93 0.6 W 7 7 4 4 1027.8 - 0.6
19/06:30am 11.9 11.0 10.7 92 0.6 W 6 7 3 4 1027.7 - 0.6
19/06:00am 12.4 11.4 11.1 92 0.7 W 7 7 4 4 1027.4 1027.5 0.6
19/05:30am 12.7 13.0 10.8 88 1.0 CALM 0 0 0 0 1027.0 - 0.6
19/05:00am 13.5 14.0 11.6 88 1.0 CALM 0 0 0 0 1027.0 - 0.6
19/04:30am 14.3 14.6 12.1 87 1.2 NNW 2 6 1 3 1026.9 - 0.6
19/04:00am 15.3 13.5 12.2 82 1.7 WSW 13 15 7 8 1027.2 - 0.6
19/03:30am 15.6 14.0 11.5 76 2.2 SW 11 15 6 8 1027.2 - 0.6
19/03:00am 15.3 14.3 12.4 83 1.6 WSW 9 13 5 7 1027.3 1027.4 0.6
19/02:30am 15.3 14.8 12.0 81 1.8 W 6 7 3 4 1027.4 - 0.6
19/02:00am 15.3 14.5 11.6 78 2.0 WSW 7 9 4 5 1027.7 - 0.6
19/01:30am 16.5 15.5 11.1 70 2.9 WSW 7 11 4 6 1028.1 - 0.6
19/01:00am 17.0 15.5 10.4 65 3.5 SW 9 11 5 6 1028.2 - 0.6
19/12:30am 17.3 15.7 10.3 63 3.7 S 9 11 5 6 1028.5 - 0.6
19/12:00am 17.3 15.3 10.3 63 3.7 SSW 11 15 6 8 1028.6 1028.7 0.6
 
Date/Time
EDT
Temp
°C
App
Temp
°C
Dew
Point
Rel
Hum
%
Delta-T
°C
Wind Press
QNH
hPa
Press
MSL
hPa
Rain
since 9 am
mm
Dir
 
Spd
km/h
Gust
km/h
Spd
kts
Gust
kts
18/11:30pm 17.5 15.4 9.9 61 4.0 SSW 11 17 6 9 1028.8 - 0.6
18/11:00pm 17.5 15.5 10.3 62 3.8 SW 11 15 6 8 1028.7 - 0.6
18/10:30pm 17.6 15.6 10.2 62 3.9 SW 11 15 6 8 1028.8 - 0.6
18/10:00pm 17.5 15.9 10.3 62 3.8 SW 9 11 5 6 1028.6 - 0.6
18/09:30pm 17.6 15.3 10.4 62 3.8 WSW 13 15 7 8 1028.5 - 0.6
18/09:00pm 17.7 16.2 10.6 63 3.8 SW 9 11 5 6 1028.4 1028.5 0.6
18/08:30pm 17.7 15.9 11.0 65 3.6 SW 11 17 6 9 1028.2 - 0.6
18/08:00pm 18.6 15.6 10.8 60 4.2 S 17 22 9 12 1027.9 - 0.6
18/07:30pm 18.9 16.2 10.5 58 4.5 S 15 20 8 11 1027.7 - 0.6
18/07:00pm 18.7 16.1 10.7 59 4.3 S 15 19 8 10 1027.3 - 0.6
18/06:30pm 18.7 16.4 10.5 59 4.4 S 13 15 7 8 1026.9 - 0.6
18/06:00pm 19.0 16.1 9.5 54 5.0 SSE 15 19 8 10 1026.6 1026.7 0.6
18/05:30pm 19.5 16.2 9.4 52 5.3 SSE 17 22 9 12 1026.3 - 0.6
18/05:00pm 20.4 17.0 9.2 48 5.9 SSE 17 26 9 14 1026.2 - 0.6
18/04:30pm 20.5 16.8 10.0 51 5.6 SSE 20 26 11 14 1026.0 - 0.6
18/04:00pm 20.9 17.2 10.3 50 5.7 S 20 28 11 15 1026.1 - 0.6
18/03:30pm 21.2 17.1 10.0 48 6.0 S 22 30 12 16 1026.4 - 0.6
18/03:00pm 21.3 17.8 10.9 51 5.7 S 20 28 11 15 1026.8 1026.9 0.6
18/02:30pm 21.0 17.5 10.9 52 5.5 S 20 28 11 15 1027.2 - 0.6
18/02:00pm 20.6 17.1 12.2 58 4.7 S 22 28 12 15 1027.4 - 0.6
18/01:30pm 20.1 17.0 11.5 57 4.7 S 19 24 10 13 1027.7 - 0.6
18/01:00pm 20.1 17.1 12.6 62 4.2 S 20 30 11 16 1028.1 - 0.6
18/12:30pm 17.4 15.0 13.9 80 2.0 ESE 19 26 10 14 1028.5 - 0.6
18/12:15pm 18.9 14.7 13.6 71 3.0 SE 28 35 15 19 1028.4 - 0.6
18/12:00pm 18.6 18.1 13.8 73 2.7 SSE 9 13 5 7 1028.4 1028.5 0.6
18/11:35am 17.6 17.6 14.3 81 1.9 S 7 11 4 6 1028.6 - 0.4
18/11:30am 17.0 17.1 14.4 85 1.5 S 7 11 4 6 1028.7 - 0.4
18/11:16am 16.5 16.6 14.4 87 1.2 S 7 11 4 6 1028.9 - 0.4
18/11:10am 16.7 16.6 14.0 84 1.5 SW 7 13 4 7 1028.8 - 0.2
18/11:00am 16.3 15.5 14.0 86 1.3 SW 11 17 6 9 1028.9 - 0.2
18/10:40am 16.6 14.1 13.4 81 1.8 SSW 19 26 10 14 1029.0 - 0.0
18/10:30am 17.9 14.6 11.6 66 3.4 SSW 20 30 11 16 1028.8 - 0.0
18/10:00am 18.6 16.3 11.6 63 3.8 SSW 15 19 8 10 1028.8 - 0.0
18/09:30am 18.2 15.4 11.4 64 3.7 SW 17 26 9 14 1028.7 - 0.0
18/09:00am 17.8 14.9 11.1 65 3.6 SW 17 22 9 12 1028.5 1028.6 0.0
18/08:30am 16.7 14.2 11.1 69 3.0 SW 15 26 8 14 1028.3 - 0.0
18/08:00am 16.4 13.0 10.5 68 3.1 SSW 19 24 10 13 1027.8 - 0.0
18/07:30am 16.5 12.8 10.2 66 3.3 WSW 20 28 11 15 1027.4 - 0.0
18/07:00am 15.2 11.7 10.2 72 2.6 SW 19 26 10 14 1027.2 - 0.0
18/06:30am 14.1 11.0 10.2 77 2.0 SW 17 22 9 12 1027.0 - 0.0
18/06:00am 13.9 11.1 10.0 77 2.0 WSW 15 20 8 11 1026.5 1026.6 0.0
18/05:30am 14.2 11.0 9.9 75 2.2 WSW 17 22 9 12 1026.2 - 0.0
18/05:00am 14.7 10.9 9.8 72 2.5 SW 20 28 11 15 1025.9 - 0.0
18/04:30am 14.4 10.6 9.9 74 2.3 WSW 20 28 11 15 1025.6 - 0.0
18/04:00am 14.5 11.3 10.0 74 2.3 SW 17 26 9 14 1025.6 - 0.0
18/03:30am 14.5 11.7 10.0 74 2.3 SW 15 24 8 13 1025.6 - 0.0
18/03:00am 14.9 11.2 10.1 73 2.5 WSW 20 30 11 16 1025.5 1025.6 0.0
18/02:30am 14.8 11.3 10.2 74 2.4 SW 19 26 10 14 1025.6 - 0.0
18/02:00am 15.0 11.3 10.0 72 2.6 WSW 20 28 11 15 1025.7 - 0.0
18/01:30am 15.3 11.8 10.1 71 2.7 SW 19 28 10 15 1025.7 - 0.0
18/01:00am 15.2 12.1 10.4 73 2.5 WSW 17 22 9 12 1026.0 - 0.0
18/12:30am 15.1 12.1 10.5 74 2.4 WSW 17 20 9 11 1025.9 - 0.0
18/12:00am 15.0 11.6 10.6 75 2.3 WSW 19 26 10 14 1025.9 1026.0 0.0
 
Date/Time
EDT
Temp
°C
App
Temp
°C
Dew
Point
Rel
Hum
%
Delta-T
°C
Wind Press
QNH
hPa
Press
MSL
hPa
Rain
since 9 am
mm
Dir
 
Spd
km/h
Gust
km/h
Spd
kts
Gust
kts
17/11:30pm 14.9 11.6 10.9 77 2.1 SW 19 28 10 15 1026.0 - 0.0
17/11:00pm 15.5 11.7 11.2 75 2.3 SW 22 28 12 15 1025.7 - 0.0
17/10:30pm 16.0 12.9 11.5 74 2.4 SW 19 26 10 14 1025.7 - 0.0
17/10:00pm 16.6 12.6 11.8 73 2.6 SW 24 32 13 17 1025.6 - 0.0
17/09:30pm 16.9 12.7 12.3 74 2.5 SW 26 35 14 19 1025.7 - 0.0
17/09:00pm 17.9 12.2 11.2 65 3.6 SSW 32 41 17 22 1025.4 1025.5 0.0
17/08:30pm 18.1 12.6 12.5 70 3.1 SSW 33 44 18 24 1025.1 - 0.0
17/08:10pm 18.2 13.1 13.2 72 2.8 SSW 32 50 17 27 1024.9 - 0.0
17/08:00pm 18.6 13.7 12.7 68 3.3 S 30 43 16 23 1024.7 - 0.0
17/07:30pm 18.3 13.9 12.9 71 3.0 S 28 35 15 19 1024.2 - 0.0
17/07:00pm 18.2 12.5 11.8 66 3.5 SSW 33 44 18 24 1024.0 - 0.0
17/06:30pm 18.1 12.2 12.3 69 3.2 SSW 35 46 19 25 1023.4 - 0.0
17/06:00pm 19.2 13.7 12.4 64 3.8 S 33 48 18 26 1022.6 1022.7 0.0
17/05:31pm 19.6 15.4 13.6 68 3.4 S 28 54 15 29 1021.8 - 0.0
17/05:30pm 19.8 15.7 13.9 69 3.4 S 28 43 15 23 1021.7 - 0.0
17/05:00pm 20.5 18.4 15.2 71 3.1 S 20 28 11 15 1021.3 - 0.0
17/04:30pm 20.9 18.7 14.4 66 3.8 S 19 26 10 14 1021.1 - 0.0
17/04:00pm 21.5 19.5 14.9 66 3.9 S 19 22 10 12 1020.9 - 0.0

Other Formats:

Comma delimited format used in spreadsheet applications
http://www.bom.gov.au/fwo/IDN60801/IDN60801.94791.axf

JavaScript Object Notation format (JSON) in row-major order
http://www.bom.gov.au/fwo/IDN60801/IDN60801.94791.json